Latest Coastal Weather Observations for Cape Naturaliste

IDW60701

Issued at 11:45 am WST Tuesday 21 October 2014 (issued every 10 minutes, with the page automatically refreshed every 10 minutes)

About coastal observations | Map of coastal stations | Coastal observations for WA | Marine services | Other Formats
Station Details ID: 009519 Name: CAPE NATURALISTE Lat: -33.54 Lon: 115.02 Height: 109.0 m
Data from the previous 72 hours. | See also: Recent months at Cape Naturaliste
Date/Time
WST
Temp

°C
Wind Pressure Rain
since 9am
mm
Weather Cloud Vis
km
Sea
Height
m
Swell
Dir
 
Speed
knots
Gust
knots
hPa Trend Height
m
Period
s
Dir
21/11:30am 19.2 NE 9 12 1022.6 - 0.0 - - - - - - -
21/11:00am 18.7 NE 10 13 1022.6 - 0.0 - - - - - - -
21/10:30am 18.4 E 10 14 1022.6 - 0.0 - - - - - - -
21/10:00am 17.9 E 10 14 1022.8 - 0.0 - - - - - - -
21/09:30am 17.2 E 10 12 1022.9 - 0.0 - - - - - - -
21/09:00am 17.3 E 9 11 1022.8 - 0.0 - - - - - - -
21/08:30am 16.2 E 10 13 1022.6 - 0.0 - - - - - - -
21/08:00am 15.6 E 9 11 1022.6 - 0.0 - - - - - - -
21/07:30am 14.9 ESE 7 9 1022.4 - 0.0 - - - - - - -
21/07:00am 13.4 SE 7 9 1022.1 - 0.0 - - - - - - -
21/06:30am 11.7 SE 7 8 1021.8 - 0.0 - - - - - - -
21/06:00am 10.6 SE 8 9 1021.7 - 0.0 - - - - - - -
21/05:30am 9.9 SSE 8 9 1021.5 - 0.0 - - - - - - -
21/05:00am 10.0 SE 8 9 1021.3 - 0.0 - - - - - - -
21/04:30am 9.9 SSE 8 9 1021.1 - 0.0 - - - - - - -
21/04:00am 9.9 SE 8 8 1020.9 - 0.0 - - - - - - -
21/03:30am 10.2 SSE 8 10 1020.7 - 0.0 - - - - - - -
21/03:00am 10.2 SSE 9 10 1020.5 - 0.0 - - - - - - -
21/02:30am 10.1 SSE 9 9 1020.3 - 0.0 - - - - - - -
21/02:00am 10.0 SSE 8 8 1020.3 - 0.0 - - - - - - -
21/01:30am 10.2 SSE 8 9 1020.3 - 0.0 - - - - - - -
21/01:00am 10.2 SSE 8 9 1020.3 - 0.0 - - - - - - -
21/12:30am 10.3 SSE 8 9 1020.2 - 0.0 - - - - - - -
21/12:00am 10.4 SSE 9 10 1020.4 - 0.0 - - - - - - -
 
Date/Time
WST
Temp

°C
Wind Pressure Rain
since 9am
mm
Weather Cloud Vis
km
Sea
Height
m
Swell
Dir
 
Speed
knots
Gust
knots
hPa Trend Height
m
Period
s
Dir
20/11:30pm 10.5 SSE 9 10 1020.4 - 0.0 - - - - - - -
20/11:00pm 11.0 SSE 9 11 1020.4 - 0.0 - - - - - - -
20/10:30pm 11.3 SSE 9 10 1020.6 - 0.0 - - - - - - -
20/10:00pm 11.4 SSE 9 11 1020.6 - 0.0 - - - - - - -
20/09:30pm 11.6 SSE 8 9 1020.6 - 0.0 - - - - - - -
20/09:00pm 12.5 SSE 8 10 1020.8 - 0.0 - - - - - - -
20/08:30pm 13.2 SSE 8 11 1020.7 - 0.0 - - - - - - -
20/08:00pm 13.3 S 8 10 1020.7 - 0.0 - - - - - - -
20/07:30pm 13.6 S 8 11 1020.2 - 0.0 - - - - - - -
20/07:00pm 14.1 SSW 10 13 1019.9 - 0.0 - - - - - - -
20/06:30pm 14.8 SSW 11 15 1019.8 - 0.0 - - - - - - -
20/06:00pm 15.3 SSW 12 16 1019.6 - 0.0 - - - - - - -
20/05:30pm 15.6 SSW 11 15 1019.4 - 0.0 - - - - - - -
20/05:00pm 16.5 SW 11 15 1019.0 - 0.0 - - - - - - -
20/04:30pm 17.7 SW 12 17 1019.0 - 0.0 - - - - - - -
20/04:00pm 18.1 SW 15 21 1018.9 - 0.0 - - - - - - -
20/03:30pm 18.3 SW 14 22 1018.8 - 0.0 - - - - - - -
20/03:00pm 17.7 SW 14 19 1018.6 - 0.0 - - - - - - -
20/02:30pm 17.6 SW 15 20 1018.5 - 0.0 - - - - - - -
20/02:00pm 19.1 SSW 15 18 1018.2 - 0.0 - - - - - - -
20/01:30pm 17.9 SSW 15 20 1018.1 - 0.0 - - - - - - -
20/01:00pm 19.3 SSW 15 20 1018.1 - 0.0 - - - - - - -
20/12:30pm 18.2 SSW 16 23 1017.9 - 0.0 - - - - - - -
20/12:00pm 18.7 SSW 17 21 1017.8 - 0.0 - - - - - - -
20/11:30am 17.7 SSW 17 22 1017.8 - 0.0 - - - - - - -
20/11:00am 17.3 SSW 15 20 1018.0 - 0.0 - - - - - - -
20/10:30am 16.9 SSW 15 20 1017.8 - 0.0 - - - - - - -
20/10:00am 17.9 SSW 15 21 1017.6 - 0.0 - - - - - - -
20/09:30am 17.3 SSW 16 21 1017.6 - 0.0 - - - - - - -
20/09:00am 16.9 SSW 16 21 1017.5 - 0.0 - - - - - - -
20/08:30am 15.9 SSW 17 23 1017.5 - 0.0 - - - - - - -
20/08:00am 16.3 SSW 16 22 1017.5 - 0.0 - - - - - - -
20/07:30am 15.3 SSW 15 20 1017.3 - 0.0 - - - - - - -
20/07:00am 13.9 S 14 19 1016.9 - 0.0 - - - - - - -
20/06:30am 12.8 S 14 19 1016.5 - 0.0 - - - - - - -
20/06:00am 12.4 S 15 19 1016.3 - 0.0 - - - - - - -
20/05:30am 12.6 SSW 16 21 1016.0 - 0.0 - - - - - - -
20/05:00am 12.1 S 17 21 1015.6 - 0.0 - - - - - - -
20/04:30am 11.7 S 14 18 1015.5 - 0.0 - - - - - - -
20/04:00am 11.7 S 13 16 1015.4 - 0.0 - - - - - - -
20/03:30am 11.8 S 15 19 1015.7 - 0.0 - - - - - - -
20/03:00am 11.6 S 15 20 1015.8 - 0.0 - - - - - - -
20/02:30am 11.7 S 15 19 1015.8 - 0.0 - - - - - - -
20/02:00am 11.7 S 13 19 1015.9 - 0.0 - - - - - - -
20/01:30am 11.8 S 13 18 1015.9 - 0.0 - - - - - - -
20/01:00am 11.9 S 14 19 1016.1 - 0.0 - - - - - - -
20/12:30am 11.9 S 13 17 1016.5 - 0.0 - - - - - - -
20/12:00am 11.9 S 13 19 1017.0 - 0.0 - - - - - - -
 
Date/Time
WST
Temp

°C
Wind Pressure Rain
since 9am
mm
Weather Cloud Vis
km
Sea
Height
m
Swell
Dir
 
Speed
knots
Gust
knots
hPa Trend Height
m
Period
s
Dir
19/11:30pm 11.6 S 13 18 1017.2 - 0.0 - - - - - - -
19/11:00pm 11.9 S 15 21 1017.2 - 0.0 - - - - - - -
19/10:30pm 11.7 S 15 19 1017.3 - 0.0 - - - - - - -
19/10:00pm 12.1 S 15 20 1017.2 - 0.0 - - - - - - -
19/09:30pm 12.0 SSE 17 22 1017.3 - 0.0 - - - - - - -
19/09:00pm 11.8 S 13 21 1017.5 - 0.0 - - - - - - -
19/08:30pm 11.8 S 12 16 1017.5 - 0.0 - - - - - - -
19/08:00pm 11.7 S 8 11 1017.3 - 0.0 - - - - - - -
19/07:30pm 12.2 SSE 9 12 1016.9 - 0.0 - - - - - - -
19/07:00pm 12.9 S 10 13 1016.8 - 0.0 - - - - - - -
19/06:30pm 13.6 S 9 13 1016.6 - 0.0 - - - - - - -
19/06:00pm 14.3 SSE 13 18 1016.5 - 0.0 - - - - - - -
19/05:30pm 15.3 SE 13 21 1016.4 - 0.0 - - - - - - -
19/05:00pm 15.7 SSE 12 19 1016.5 - 0.0 - - - - - - -
19/04:30pm 16.1 SE 14 19 1016.4 - 0.0 - - - - - - -
19/04:00pm 18.1 SSE 13 18 1016.3 - 0.0 - - - - - - -
19/03:30pm 17.5 SE 13 19 1016.2 - 0.0 - - - - - - -
19/03:00pm 17.2 SE 16 22 1016.5 - 0.0 - - - - - - -
19/02:30pm 17.2 SE 17 23 1016.4 - 0.0 - - - - - - -
19/02:00pm 16.7 SE 13 19 1016.6 - 0.0 - - - - - - -
19/01:30pm 17.1 ESE 15 20 1017.0 - 0.0 - - - - - - -
19/01:00pm 16.3 ESE 13 20 1017.1 - 0.0 - - - - - - -
19/12:30pm 16.1 SE 13 21 1017.2 - 0.0 - - - - - - -
19/12:00pm 16.5 ESE 16 24 1017.2 - 0.0 - - - - - - -
19/11:30am 16.5 ESE 19 28 1017.0 - 0.0 - - - - - - -
19/11:00am 16.1 ESE 21 27 1016.9 - 0.0 - - - - - - -
19/10:32am 16.1 ESE 19 29 1017.0 - 0.0 - - - - - - -
19/10:30am 15.9 ESE 21 29 1017.1 - 0.0 - - - - - - -
19/10:00am 16.7 ESE 19 31 1017.3 - 0.0 - - - - - - -
19/09:52am 16.4 ESE 20 31 1017.3 - 0.0 - - - - - - -
19/09:30am 13.9 ESE 20 27 1017.4 - 0.0 - - - - - - -
19/09:01am 13.9 ESE 23 33 1017.4 - 0.0 - - - - - - -
19/09:00am 13.9 ESE 23 31 1017.4 - 0.0 - - - - - - -
19/08:45am 13.9 ESE 22 33 1017.5 - 0.0 - - - - - - -
19/08:30am 13.8 ESE 21 28 1017.5 - 0.0 - - - - - - -
19/08:00am 12.9 ESE 20 28 1017.6 - 0.0 - - - - - - -
19/07:30am 12.0 SE 19 27 1017.6 - 0.0 - - - - - - -
19/07:00am 11.7 SE 18 25 1017.9 - 0.0 - - - - - - -
19/06:30am 11.8 SE 19 27 1017.9 - 0.0 - - - - - - -
19/06:00am 11.7 SE 19 26 1017.7 - 0.0 - - - - - - -
19/05:43am 11.6 SE 19 29 1017.3 - 0.0 - - - - - - -
19/05:30am 11.5 SE 20 27 1017.0 - 0.0 - - - - - - -
19/05:00am 11.6 SE 21 28 1016.6 - 0.0 - - - - - - -
19/04:32am 11.8 ESE 22 32 1016.6 - 0.0 - - - - - - -
19/04:30am 11.8 ESE 23 32 1016.5 - 0.0 - - - - - - -
19/04:00am 11.8 SE 21 32 1016.9 - 0.0 - - - - - - -
19/03:30am 11.8 SE 19 25 1017.1 - 0.0 - - - - - - -
19/03:15am 11.8 SE 15 25 1017.3 - 0.0 - - - - - - -
19/03:00am 11.7 SE 14 20 1017.5 - 0.0 - - - - - - -
19/02:44am 11.7 SSE 15 25 1017.4 - 0.0 - - - - - - -
19/02:30am 11.7 SSE 13 18 1017.6 - 0.0 - - - - - - -
19/02:00am 11.8 SSE 12 16 1017.7 - 0.0 - - - - - - -
19/01:30am 12.1 SE 14 19 1017.8 - 0.0 - - - - - - -
19/01:00am 12.3 SE 14 21 1018.0 - 0.0 - - - - - - -
19/12:30am 12.4 SE 13 21 1018.2 - 0.0 - - - - - - -
19/12:00am 12.8 SE 16 24 1018.2 - 0.0 - - - - - - -
 
Date/Time
WST
Temp

°C
Wind Pressure Rain
since 9am
mm
Weather Cloud Vis
km
Sea
Height
m
Swell
Dir
 
Speed
knots
Gust
knots
hPa Trend Height
m
Period
s
Dir
18/11:30pm 12.9 SE 15 22 1018.2 - 0.0 - - - - - - -
18/11:00pm 12.9 SE 14 22 1018.4 - 0.0 - - - - - - -
18/10:51pm 12.9 SE 15 25 1018.5 - 0.0 - - - - - - -
18/10:30pm 13.3 SE 15 21 1018.6 - 0.0 - - - - - - -
18/10:00pm 13.2 SE 13 17 1018.8 - 0.0 - - - - - - -
18/09:30pm 13.2 SE 13 19 1018.7 - 0.0 - - - - - - -
18/09:00pm 13.2 SE 13 19 1018.6 - 0.0 - - - - - - -
18/08:30pm 13.4 SE 14 21 1018.4 - 0.0 - - - - - - -
18/08:00pm 13.7 SE 13 19 1018.0 - 0.0 - - - - - - -
18/07:30pm 13.8 SE 12 16 1017.5 - 0.0 - - - - - - -
18/07:00pm 14.3 SE 12 17 1017.0 - 0.0 - - - - - - -
18/06:30pm 14.6 SE 11 16 1016.6 - 0.0 - - - - - - -
18/06:00pm 14.9 SSE 17 26 1015.9 - 0.0 - - - - - - -
18/05:30pm 15.4 SSE 17 23 1015.4 - 0.0 - - - - - - -
18/05:20pm 15.7 SSE 16 26 1015.3 - 0.0 - - - - - - -
18/05:00pm 16.5 SSE 14 24 1015.2 - 0.0 - - - - - - -
18/04:30pm 15.8 SE 14 21 1015.4 - 0.0 - - - - - - -
18/04:00pm 16.0 SE 15 21 1015.4 - 0.0 - - - - - - -
18/03:30pm 16.0 SE 13 23 1015.1 - 0.0 - - - - - - -
18/03:00pm 16.6 SE 17 23 1014.5 - 0.0 - - - - - - -
18/02:30pm 16.6 SE 19 26 1014.4 - 0.0 - - - - - - -
18/02:00pm 16.9 SE 17 24 1014.2 - 0.0 - - - - - - -
18/01:30pm 16.6 SE 16 22 1014.6 - 0.0 - - - - - - -
18/01:13pm 17.2 SE 17 27 1014.7 - 0.0 - - - - - - -
18/01:00pm 17.0 SE 17 25 1014.7 - 0.0 - - - - - - -
18/12:51pm 18.2 SE 16 26 1014.6 - 0.0 - - - - - - -
18/12:30pm 17.3 SE 16 23 1014.7 - 0.0 - - - - - - -
18/12:00pm 17.1 SE 18 26 1014.6 - 0.0 - - - - - - -

Other Formats:

Comma delimited format used in spreadsheet applications
http://www.bom.gov.au/fwo/IDW60701/IDW60701.94600.axf

JavaScript Object Notation format (JSON) in row-major order
http://www.bom.gov.au/fwo/IDW60701/IDW60701.94600.json